Carnival Destiny — C6FN4 — position and weather

sailwx.info

Track history (hours):
 
Tides and Currents Weather Stations Pressure Air Temp Water Temp Dewpoint Dewpoint Depression Visibility Wind Speed Wind Dir Waves Ship Positions

Carnival Destiny

Operator: Carnival Cruise Lines

Last reported at 2020-Apr-05 13:28 UTC. Time now 2020-Apr-06 08:51 UTC.
Position N 32°48' W 079°56'.

Type: Passenger vessel. MMSI: 308017000.

Date/timePositionNaut miles runAvg speedWind from/ knotsBaromVisibWave heightAir tempDewpointWater temp
2020-Apr-05 13:28N 32°48' W 079°56'0 0.0
2020-Apr-05 12:57N 32°48' W 079°56'0 0.0
2020-Apr-05 06:31N 32°48' W 079°56'0 0.0
2020-Apr-05 06:06N 32°48' W 079°56'0 0.0
2020-Apr-05 01:30N 32°48' W 079°56'0 0.0
2020-Apr-04 23:31N 32°48' W 079°56'0 0.0
2020-Apr-04 13:02N 32°48' W 079°56'0 0.0
2020-Apr-04 11:27N 32°48' W 079°56'0 0.0
2020-Apr-04 11:00N 32°48' W 079°56'0 0.0
2020-Apr-04 04:00N 32°48' W 079°56'0 0.0
2020-Apr-04 03:00N 32°48' W 079°56'0 0.0
2020-Apr-04 02:30N 32°48' W 079°56'0 0.0
2020-Apr-04 00:50N 32°48' W 079°56'8 0.6
2020-Apr-03 11:00N 32°43' W 079°48'  
2020-Mar-31 11:25N 32°48' W 079°56'0 0.0
2020-Mar-31 00:58N 32°48' W 079°56'0 0.0
2020-Mar-30 23:22N 32°48' W 079°56'0 0.0
2020-Mar-30 16:13N 32°48' W 079°56'0 0.0
2020-Mar-30 14:07N 32°48' W 079°56'0 0.0
2020-Mar-30 13:55N 32°48' W 079°56'0 0.0
2020-Mar-30 11:52N 32°48' W 079°56'0 0.0
2020-Mar-30 10:22N 32°48' W 079°56'0 0.0
2020-Mar-30 08:28N 32°48' W 079°56'0 0.0
2020-Mar-30 07:58N 32°48' W 079°56'17 1.7
2020-Mar-29 21:25N 32°38' W 079°39'16 7.5
2020-Mar-29 19:14N 32°24' W 079°30'3 9.9
2020-Mar-29 18:58N 32°24' W 079°33'31 5.0
2020-Mar-29 12:50N 32°48' W 079°56'0 0.0
2020-Mar-29 08:56N 32°48' W 079°56'0 0.0
2020-Mar-29 03:29N 32°48' W 079°56'0 0.0
2020-Mar-28 23:32N 32°48' W 079°56'0 0.0
2020-Mar-28 23:29N 32°48' W 079°56'0 0.0
2020-Mar-28 12:26N 32°48' W 079°56'  
Track history (hours):
 
Tides and Currents Weather Stations Pressure Air Temp Water Temp Dewpoint Dewpoint Depression Visibility Wind Speed Wind Dir Waves Ship Positions

Carnival Destiny

Operator: Carnival Cruise Lines

Last reported at 2020-Apr-05 13:28 UTC. Time now 2020-Apr-06 08:51 UTC.
Position N 32°48' W 079°56'.

Type: Passenger vessel. MMSI: 308017000.

Date/timePositionNaut miles runAvg speedWind from/ knotsBaromVisibWave heightAir tempDewpointWater temp
2020-Apr-05 13:28N 32°48' W 079°56'0 0.0
2020-Apr-05 12:57N 32°48' W 079°56'0 0.0
2020-Apr-05 06:31N 32°48' W 079°56'0 0.0
2020-Apr-05 06:06N 32°48' W 079°56'0 0.0
2020-Apr-05 01:30N 32°48' W 079°56'0 0.0
2020-Apr-04 23:31N 32°48' W 079°56'0 0.0
2020-Apr-04 13:02N 32°48' W 079°56'0 0.0
2020-Apr-04 11:27N 32°48' W 079°56'0 0.0
2020-Apr-04 11:00N 32°48' W 079°56'0 0.0
2020-Apr-04 04:00N 32°48' W 079°56'0 0.0
2020-Apr-04 03:00N 32°48' W 079°56'0 0.0
2020-Apr-04 02:30N 32°48' W 079°56'0 0.0
2020-Apr-04 00:50N 32°48' W 079°56'8 0.6
2020-Apr-03 11:00N 32°43' W 079°48'  
2020-Mar-31 11:25N 32°48' W 079°56'0 0.0
2020-Mar-31 00:58N 32°48' W 079°56'0 0.0
2020-Mar-30 23:22N 32°48' W 079°56'0 0.0
2020-Mar-30 16:13N 32°48' W 079°56'0 0.0
2020-Mar-30 14:07N 32°48' W 079°56'0 0.0
2020-Mar-30 13:55N 32°48' W 079°56'0 0.0
2020-Mar-30 11:52N 32°48' W 079°56'0 0.0
2020-Mar-30 10:22N 32°48' W 079°56'0 0.0
2020-Mar-30 08:28N 32°48' W 079°56'0 0.0
2020-Mar-30 07:58N 32°48' W 079°56'17 1.7
2020-Mar-29 21:25N 32°38' W 079°39'16 7.5
2020-Mar-29 19:14N 32°24' W 079°30'3 9.9
2020-Mar-29 18:58N 32°24' W 079°33'31 5.0
2020-Mar-29 12:50N 32°48' W 079°56'0 0.0
2020-Mar-29 08:56N 32°48' W 079°56'0 0.0
2020-Mar-29 03:29N 32°48' W 079°56'0 0.0
2020-Mar-28 23:32N 32°48' W 079°56'0 0.0
2020-Mar-28 23:29N 32°48' W 079°56'0 0.0
2020-Mar-28 12:26N 32°48' W 079°56'  

Dump ship's entire track history